createdAt,value
2017-01-19T00:00:37.899Z,-4.1
2017-01-19T00:01:40.872Z,-4.1
2017-01-19T00:02:44.344Z,-4.1
2017-01-19T00:03:47.318Z,-4.1
2017-01-19T00:04:50.291Z,-4.1
2017-01-19T00:05:53.258Z,-4.1
2017-01-19T00:06:56.233Z,-4.1
2017-01-19T00:07:59.710Z,-4.1
2017-01-19T00:09:02.681Z,-4.1
2017-01-19T00:10:05.657Z,-4.1
2017-01-19T00:11:08.628Z,-4.1
2017-01-19T00:12:11.601Z,-4.1
2017-01-19T00:13:15.098Z,-4.1
2017-01-19T00:14:18.069Z,-4.1
2017-01-19T00:15:21.040Z,-4.1
2017-01-19T00:16:24.011Z,-4.1
2017-01-19T00:17:26.986Z,-4.1
2017-01-19T00:18:30.457Z,-4.1
2017-01-19T00:19:33.435Z,-4.1
2017-01-19T00:20:36.415Z,-4.1
2017-01-19T00:21:39.382Z,-4.2
2017-01-19T00:22:42.853Z,-4.2
2017-01-19T00:23:45.820Z,-4.2
2017-01-19T00:24:48.790Z,-4.2
2017-01-19T00:25:51.765Z,-4.2
2017-01-19T00:26:54.733Z,-4.2
2017-01-19T00:29:01.112Z,-4.2
2017-01-19T00:30:04.095Z,-4.2
2017-01-19T00:31:07.072Z,-4.3
2017-01-19T00:32:10.544Z,-4.2
2017-01-19T00:33:13.512Z,-4.2
2017-01-19T00:34:16.489Z,-4.2
2017-01-19T00:35:19.462Z,-4.2
2017-01-19T00:36:22.433Z,-4.2
2017-01-19T00:37:26.075Z,-4.2
2017-01-19T00:38:29.048Z,-4.2
2017-01-19T00:39:32.018Z,-4.2
2017-01-19T00:40:35.010Z,-4.2
2017-01-19T00:41:37.983Z,-4.2
2017-01-19T00:42:40.960Z,-4.3
2017-01-19T00:43:44.434Z,-4.3
2017-01-19T00:44:47.412Z,-4.3
2017-01-19T00:45:50.386Z,-4.3
2017-01-19T00:46:53.359Z,-4.3
2017-01-19T00:47:56.332Z,-4.3
2017-01-19T00:48:59.807Z,-4.3
2017-01-19T00:50:02.780Z,-4.3
2017-01-19T00:51:05.757Z,-4.3
2017-01-19T00:52:08.727Z,-4.3
2017-01-19T00:53:11.699Z,-4.3
2017-01-19T00:54:15.173Z,-4.3
2017-01-19T00:55:18.144Z,-4.3
2017-01-19T00:57:24.020Z,-4.3
2017-01-19T00:58:27.494Z,-4.3
2017-01-19T00:59:30.469Z,-4.3
2017-01-19T01:00:33.450Z,-4.3
2017-01-19T01:01:36.420Z,-4.3
2017-01-19T01:02:39.892Z,-4.3
2017-01-19T01:03:42.864Z,-4.3
2017-01-19T01:04:45.834Z,-4.3
2017-01-19T01:05:48.805Z,-4.3
2017-01-19T01:06:51.774Z,-4.3
2017-01-19T01:07:55.253Z,-4.3
2017-01-19T01:08:58.226Z,-4.4
2017-01-19T01:10:01.199Z,-4.3
2017-01-19T01:11:04.342Z,-4.3
2017-01-19T01:12:07.323Z,-4.3
2017-01-19T01:13:10.292Z,-4.3
2017-01-19T01:14:13.266Z,-4.4
2017-01-19T01:15:16.741Z,-4.3
2017-01-19T01:16:19.714Z,-4.3
2017-01-19T01:18:25.595Z,-4.3
2017-01-19T01:19:29.070Z,-4.4
2017-01-19T01:20:32.068Z,-4.4
2017-01-19T01:21:35.040Z,-4.4
2017-01-19T01:22:38.011Z,-4.4
2017-01-19T01:23:40.990Z,-4.4
2017-01-19T01:24:44.464Z,-4.5
2017-01-19T01:25:47.434Z,-4.4
2017-01-19T01:26:50.411Z,-4.4
2017-01-19T01:27:53.387Z,-4.4
2017-01-19T01:28:56.362Z,-4.5
2017-01-19T01:29:59.836Z,-4.4
2017-01-19T01:31:02.806Z,-4.4
2017-01-19T01:32:05.779Z,-4.4
2017-01-19T01:33:08.751Z,-4.4
2017-01-19T01:34:12.223Z,-4.4
2017-01-19T01:35:15.194Z,-4.5
2017-01-19T01:36:18.162Z,-4.5
2017-01-19T01:38:24.543Z,-4.5
2017-01-19T01:39:27.514Z,-4.5
2017-01-19T01:40:30.511Z,-4.5
2017-01-19T01:41:33.493Z,-4.5
2017-01-19T01:42:36.464Z,-4.5
2017-01-19T01:43:39.947Z,-4.5
2017-01-19T01:44:42.916Z,-4.5
2017-01-19T01:45:45.889Z,-4.5
2017-01-19T01:46:48.859Z,-4.5
2017-01-19T01:47:51.836Z,-4.5
2017-01-19T01:48:55.309Z,-4.5
2017-01-19T01:49:58.278Z,-4.5
2017-01-19T01:51:01.254Z,-4.5
2017-01-19T01:52:04.226Z,-4.5
2017-01-19T01:53:07.195Z,-4.5
2017-01-19T01:54:10.669Z,-4.5
2017-01-19T01:55:13.638Z,-4.6
2017-01-19T01:56:16.611Z,-4.5
2017-01-19T01:57:19.585Z,-4.6
2017-01-19T01:58:22.556Z,-4.5
2017-01-19T01:59:26.027Z,-4.5
2017-01-19T02:00:28.996Z,-4.5
2017-01-19T02:01:31.969Z,-4.6
2017-01-19T02:02:34.943Z,-4.6
2017-01-19T02:03:38.426Z,-4.5
2017-01-19T02:04:41.399Z,-4.5
2017-01-19T02:05:44.372Z,-4.6
2017-01-19T02:06:47.340Z,-4.5
2017-01-19T02:07:50.308Z,-4.5
2017-01-19T02:08:53.782Z,-4.5
2017-01-19T02:09:56.752Z,-4.5
2017-01-19T02:10:59.728Z,-4.5
2017-01-19T02:12:02.700Z,-4.5
2017-01-19T02:13:05.672Z,-4.5
2017-01-19T02:14:09.148Z,-4.6
2017-01-19T02:15:11.935Z,-4.6
2017-01-19T02:16:14.910Z,-4.5
2017-01-19T02:17:18.416Z,-4.6
2017-01-19T02:18:21.395Z,-4.5
2017-01-19T02:19:24.368Z,-4.6
2017-01-19T02:20:27.338Z,-4.6
2017-01-19T02:21:30.311Z,-4.6
2017-01-19T02:22:33.786Z,-4.6
2017-01-19T02:23:36.761Z,-4.6
2017-01-19T02:24:39.736Z,-4.6
2017-01-19T02:25:42.706Z,-4.6
2017-01-19T02:26:45.762Z,-4.6
2017-01-19T02:27:48.737Z,-4.6
2017-01-19T02:28:52.213Z,-4.6
2017-01-19T02:30:58.090Z,-4.6
2017-01-19T02:32:01.062Z,-4.6
2017-01-19T02:33:04.539Z,-4.6
2017-01-19T02:34:07.510Z,-4.6
2017-01-19T02:35:10.483Z,-4.6
2017-01-19T02:36:13.471Z,-4.6
2017-01-19T02:37:16.448Z,-4.6
2017-01-19T02:38:19.931Z,-4.6
2017-01-19T02:39:22.901Z,-4.6
2017-01-19T02:40:25.875Z,-4.6
2017-01-19T02:41:28.845Z,-4.6
2017-01-19T02:42:31.817Z,-4.6
2017-01-19T02:43:35.288Z,-4.6
2017-01-19T02:44:38.257Z,-4.6
2017-01-19T02:45:41.225Z,-4.6
2017-01-19T02:46:44.204Z,-4.6
2017-01-19T02:47:47.179Z,-4.6
2017-01-19T02:48:50.655Z,-4.6
2017-01-19T02:49:53.628Z,-4.6
2017-01-19T02:50:56.600Z,-4.6
2017-01-19T02:51:59.573Z,-4.6
2017-01-19T02:53:02.544Z,-4.6
2017-01-19T02:54:06.018Z,-4.7
2017-01-19T02:55:08.988Z,-4.7
2017-01-19T02:56:11.956Z,-4.7
2017-01-19T02:57:14.930Z,-4.7
2017-01-19T02:58:18.407Z,-4.8
2017-01-19T02:59:21.379Z,-4.8
2017-01-19T03:00:24.347Z,-4.8
2017-01-19T03:01:27.317Z,-4.7
2017-01-19T03:02:30.293Z,-4.8
2017-01-19T03:03:33.769Z,-4.8
2017-01-19T03:04:36.740Z,-4.8
2017-01-19T03:05:39.710Z,-4.8
2017-01-19T03:06:42.685Z,-4.8
2017-01-19T03:07:45.657Z,-4.8
2017-01-19T03:08:49.138Z,-4.8
2017-01-19T03:09:52.107Z,-4.8
2017-01-19T03:10:55.075Z,-4.7
2017-01-19T03:11:58.043Z,-4.7
2017-01-19T03:13:01.028Z,-4.7
2017-01-19T03:14:04.505Z,-4.7
2017-01-19T03:15:07.475Z,-4.8
2017-01-19T03:16:10.444Z,-4.8
2017-01-19T03:17:13.418Z,-4.8
2017-01-19T03:18:16.396Z,-4.8
2017-01-19T03:19:19.870Z,-4.8
2017-01-19T03:20:22.839Z,-4.8
2017-01-19T03:21:25.806Z,-4.8
2017-01-19T03:22:28.781Z,-4.8
2017-01-19T03:23:31.753Z,-4.8
2017-01-19T03:24:35.231Z,-4.8
2017-01-19T03:25:38.206Z,-4.8
2017-01-19T03:26:41.177Z,-4.8
2017-01-19T03:27:44.149Z,-4.8
2017-01-19T03:28:47.117Z,-4.8
2017-01-19T03:29:50.593Z,-4.8
2017-01-19T03:31:56.467Z,-4.8
2017-01-19T03:32:59.437Z,-4.8
2017-01-19T03:34:02.916Z,-4.8
2017-01-19T03:35:05.888Z,-4.8
2017-01-19T03:36:08.855Z,-4.9
2017-01-19T03:37:11.827Z,-4.8
2017-01-19T03:38:14.796Z,-4.9
2017-01-19T03:39:18.271Z,-4.9
2017-01-19T03:40:21.241Z,-4.8
2017-01-19T03:41:24.210Z,-4.9
2017-01-19T03:42:27.185Z,-4.9
2017-01-19T03:43:30.151Z,-4.9
2017-01-19T03:44:33.626Z,-4.8
2017-01-19T03:45:36.596Z,-4.8
2017-01-19T03:46:39.568Z,-4.8
2017-01-19T03:47:42.542Z,-4.9
2017-01-19T03:48:45.539Z,-4.9
2017-01-19T03:49:49.012Z,-4.9
2017-01-19T03:50:51.984Z,-4.9
2017-01-19T03:51:54.953Z,-4.9
2017-01-19T03:52:57.919Z,-4.9
2017-01-19T03:54:00.888Z,-5
2017-01-19T03:55:04.359Z,-5
2017-01-19T03:56:07.334Z,-5
2017-01-19T03:57:10.308Z,-5
2017-01-19T03:58:13.272Z,-5
2017-01-19T03:59:16.240Z,-5
2017-01-19T04:00:19.709Z,-5
2017-01-19T04:01:22.678Z,-5
2017-01-19T04:02:25.651Z,-5
2017-01-19T04:03:28.623Z,-5
2017-01-19T04:04:31.594Z,-5
2017-01-19T04:05:35.066Z,-5
2017-01-19T04:06:38.033Z,-5
2017-01-19T04:07:41.003Z,-5
2017-01-19T04:08:43.973Z,-5
2017-01-19T04:09:46.940Z,-5
2017-01-19T04:10:50.420Z,-5
2017-01-19T04:11:53.389Z,-5
2017-01-19T04:12:56.360Z,-5
2017-01-19T04:13:59.330Z,-5
2017-01-19T04:15:02.304Z,-5
2017-01-19T04:16:05.780Z,-5
2017-01-19T04:17:08.752Z,-5
2017-01-19T04:18:11.749Z,-5
2017-01-19T04:19:14.727Z,-5
2017-01-19T04:20:17.698Z,-5
2017-01-19T04:21:21.174Z,-5
2017-01-19T04:22:24.143Z,-5
2017-01-19T04:23:27.113Z,-5
2017-01-19T04:24:30.086Z,-5
2017-01-19T04:25:33.055Z,-5
2017-01-19T04:26:36.527Z,-5
2017-01-19T04:27:39.505Z,-5.1
2017-01-19T04:29:45.383Z,-5.1
2017-01-19T04:30:48.854Z,-5
2017-01-19T04:31:51.822Z,-5
2017-01-19T04:32:54.791Z,-5
2017-01-19T04:33:57.761Z,-5.1
2017-01-19T04:35:00.731Z,-5.1
2017-01-19T04:36:04.210Z,-5.1
2017-01-19T04:37:07.177Z,-5.1
2017-01-19T04:38:10.147Z,-5.1
2017-01-19T04:39:13.117Z,-5
2017-01-19T04:40:16.089Z,-5.1
2017-01-19T04:41:19.562Z,-5.1
2017-01-19T04:42:22.528Z,-5
2017-01-19T04:43:25.495Z,-5
2017-01-19T04:44:28.462Z,-5
2017-01-19T04:45:31.429Z,-5
2017-01-19T04:46:34.897Z,-5.1
2017-01-19T04:47:37.867Z,-5.1
2017-01-19T04:48:40.836Z,-5.1
2017-01-19T04:49:43.813Z,-5.1
2017-01-19T04:50:46.783Z,-5.1
2017-01-19T04:51:50.259Z,-5.1
2017-01-19T04:52:53.225Z,-5.1
2017-01-19T04:53:56.201Z,-5.1
2017-01-19T04:54:59.169Z,-5.1
2017-01-19T04:56:02.144Z,-5.1
2017-01-19T04:57:05.617Z,-5.1
2017-01-19T04:58:08.582Z,-5.1
2017-01-19T04:59:11.549Z,-5.1
2017-01-19T05:00:14.521Z,-5.1
2017-01-19T05:01:17.492Z,-5.1
2017-01-19T05:02:20.961Z,-5.1
2017-01-19T05:03:23.928Z,-5.1
2017-01-19T05:04:26.898Z,-5.1
2017-01-19T05:05:29.868Z,-5.1
2017-01-19T05:06:32.837Z,-5.1
2017-01-19T05:07:36.312Z,-5.1
2017-01-19T05:08:39.284Z,-5.1
2017-01-19T05:09:42.254Z,-5.1
2017-01-19T05:10:45.225Z,-5.1
2017-01-19T05:11:48.196Z,-5.1
2017-01-19T05:12:51.670Z,-5.1
2017-01-19T05:13:54.638Z,-5.1
2017-01-19T05:14:57.608Z,-5.1
2017-01-19T05:16:00.575Z,-5.1
2017-01-19T05:17:04.048Z,-5.1
2017-01-19T05:18:07.018Z,-5.1
2017-01-19T05:19:09.989Z,-5.1
2017-01-19T05:20:12.961Z,-5.1
2017-01-19T05:21:15.929Z,-5.1
2017-01-19T05:22:19.403Z,-5.1
2017-01-19T05:23:22.372Z,-5.1
2017-01-19T05:24:25.341Z,-5.1
2017-01-19T05:25:28.311Z,-5.1
2017-01-19T05:26:31.277Z,-5.1
2017-01-19T05:27:34.754Z,-5.1
2017-01-19T05:28:37.725Z,-5.1
2017-01-19T05:29:40.695Z,-5.1
2017-01-19T05:30:43.664Z,-5.1
2017-01-19T05:31:46.639Z,-5.1
2017-01-19T05:32:50.113Z,-5.1
2017-01-19T05:33:53.085Z,-5.1
2017-01-19T05:34:56.058Z,-5.1
2017-01-19T05:35:59.025Z,-5.1
2017-01-19T05:37:01.996Z,-5.1
2017-01-19T05:38:05.468Z,-5.1
2017-01-19T05:39:08.439Z,-5.1
2017-01-19T05:40:11.407Z,-5.1
2017-01-19T05:41:14.380Z,-5.1
2017-01-19T05:42:17.356Z,-5.1
2017-01-19T05:43:20.831Z,-5.1
2017-01-19T05:44:23.798Z,-5.1
2017-01-19T05:45:26.766Z,-5.1
2017-01-19T05:46:29.735Z,-5.1
2017-01-19T05:47:32.704Z,-5.1
2017-01-19T05:48:36.176Z,-5.1
2017-01-19T05:49:39.141Z,-5.2
2017-01-19T05:50:42.115Z,-5.2
2017-01-19T05:51:45.082Z,-5.2
2017-01-19T05:52:48.050Z,-5.2
2017-01-19T05:53:51.523Z,-5.2
2017-01-19T05:54:54.492Z,-5.2
2017-01-19T05:55:57.458Z,-5.2
2017-01-19T05:57:00.426Z,-5.2
2017-01-19T05:58:03.394Z,-5.2
2017-01-19T05:59:06.864Z,-5.2
2017-01-19T06:00:09.832Z,-5.2
2017-01-19T06:01:12.799Z,-5.2
2017-01-19T06:02:15.771Z,-5.2
2017-01-19T06:03:18.738Z,-5.2
2017-01-19T06:04:22.211Z,-5.2
2017-01-19T06:05:25.178Z,-5.2
2017-01-19T06:06:28.149Z,-5.2
2017-01-19T06:07:31.117Z,-5.2
2017-01-19T06:08:34.091Z,-5.2
2017-01-19T06:09:37.566Z,-5.2
2017-01-19T06:10:40.540Z,-5.2
2017-01-19T06:11:43.508Z,-5.2
2017-01-19T06:12:46.476Z,-5.2
2017-01-19T06:13:49.444Z,-5.2
2017-01-19T06:14:52.922Z,-5.2
2017-01-19T06:15:55.888Z,-5.3
2017-01-19T06:16:58.857Z,-5.3
2017-01-19T06:18:01.845Z,-5.3
2017-01-19T06:19:04.842Z,-5.3
2017-01-19T06:20:08.313Z,-5.2
2017-01-19T06:21:11.282Z,-5.2
2017-01-19T06:22:14.252Z,-5.2
2017-01-19T06:23:17.237Z,-5.2
2017-01-19T06:24:20.208Z,-5.2
2017-01-19T06:25:23.693Z,-5.2
2017-01-19T06:26:26.664Z,-5.2
2017-01-19T06:27:29.633Z,-5.2
2017-01-19T06:28:32.599Z,-5.2
2017-01-19T06:30:39.004Z,-5.1
2017-01-19T06:31:41.972Z,-5.2
2017-01-19T06:33:47.851Z,-5.2
2017-01-19T06:34:51.320Z,-5.2
2017-01-19T06:35:54.286Z,-5.2
2017-01-19T06:36:57.257Z,-5.3
2017-01-19T06:38:00.224Z,-5.3
2017-01-19T06:39:03.195Z,-5.3
2017-01-19T06:40:06.670Z,-5.3
2017-01-19T06:41:09.647Z,-5.3
2017-01-19T06:42:12.615Z,-5.3
2017-01-19T06:43:15.584Z,-5.3
2017-01-19T06:44:18.549Z,-5.3
2017-01-19T06:45:22.022Z,-5.3
2017-01-19T06:46:24.990Z,-5.3
2017-01-19T06:47:27.958Z,-5.3
2017-01-19T06:48:30.929Z,-5.2
2017-01-19T06:49:33.900Z,-5.2
2017-01-19T06:50:37.373Z,-5.2
2017-01-19T06:51:40.345Z,-5.2
2017-01-19T06:52:43.317Z,-5.2
2017-01-19T06:53:46.287Z,-5.1
2017-01-19T06:54:49.778Z,-5.2
2017-01-19T06:55:52.756Z,-5.2
2017-01-19T06:56:55.725Z,-5.2
2017-01-19T06:57:58.695Z,-5.3
2017-01-19T06:59:01.671Z,-5.3
2017-01-19T07:00:04.642Z,-5.3
2017-01-19T07:01:08.120Z,-5.3
2017-01-19T07:02:11.092Z,-5.3
2017-01-19T07:03:14.061Z,-5.3
2017-01-19T07:04:17.031Z,-5.3
2017-01-19T07:05:20.504Z,-5.3
2017-01-19T07:06:23.477Z,-5.3
2017-01-19T07:07:26.445Z,-5.3
2017-01-19T07:08:29.415Z,-5.3
2017-01-19T07:09:32.402Z,-5.3
2017-01-19T07:10:35.874Z,-5.3
2017-01-19T07:11:38.845Z,-5.3
2017-01-19T07:12:41.822Z,-5.3
2017-01-19T07:13:44.792Z,-5.3
2017-01-19T07:14:47.766Z,-5.3
2017-01-19T07:15:51.238Z,-5.3
2017-01-19T07:16:54.209Z,-5.3
2017-01-19T07:17:57.180Z,-5.3
2017-01-19T07:19:00.155Z,-5.3
2017-01-19T07:20:03.127Z,-5.3
2017-01-19T07:21:06.605Z,-5.3
2017-01-19T07:22:09.579Z,-5.3
2017-01-19T07:23:12.545Z,-5.3
2017-01-19T07:24:15.514Z,-5.3
2017-01-19T07:25:18.484Z,-5.3
2017-01-19T07:26:21.955Z,-5.3
2017-01-19T07:27:24.924Z,-5.3
2017-01-19T07:28:27.895Z,-5.3
2017-01-19T07:29:30.865Z,-5.3
2017-01-19T07:30:33.836Z,-5.3
2017-01-19T07:31:37.307Z,-5.3
2017-01-19T07:32:40.275Z,-5.3
2017-01-19T07:33:43.243Z,-5.3
2017-01-19T07:34:46.215Z,-5.3
2017-01-19T07:35:49.183Z,-5.3
2017-01-19T07:36:52.657Z,-5.3
2017-01-19T07:37:55.625Z,-5.3
2017-01-19T07:38:58.595Z,-5.3
2017-01-19T07:40:01.598Z,-5.3
2017-01-19T07:41:04.570Z,-5.3
2017-01-19T07:42:08.045Z,-5.3
2017-01-19T07:43:11.019Z,-5.3
2017-01-19T07:44:13.985Z,-5.3
2017-01-19T07:45:16.957Z,-5.3
2017-01-19T07:46:19.924Z,-5.3
2017-01-19T07:47:23.401Z,-5.3
2017-01-19T07:48:26.369Z,-5.3
2017-01-19T07:49:29.340Z,-5.3
2017-01-19T07:50:32.308Z,-5.3
2017-01-19T07:51:35.275Z,-5.3
2017-01-19T07:52:38.746Z,-5.3
2017-01-19T07:53:41.716Z,-5.3
2017-01-19T07:54:44.691Z,-5.3
2017-01-19T07:55:47.660Z,-5.3
2017-01-19T07:56:51.134Z,-5.3
2017-01-19T07:57:54.102Z,-5.3
2017-01-19T07:58:57.075Z,-5.3
2017-01-19T08:00:00.047Z,-5.3
2017-01-19T08:01:03.017Z,-5.3
2017-01-19T08:02:06.493Z,-5.3
2017-01-19T08:03:09.467Z,-5.3
2017-01-19T08:04:12.439Z,-5.3
2017-01-19T08:05:15.413Z,-5.3
2017-01-19T08:06:18.383Z,-5.3
2017-01-19T08:07:21.862Z,-5.3
2017-01-19T08:08:24.842Z,-5.3
2017-01-19T08:09:27.810Z,-5.3
2017-01-19T08:10:30.778Z,-5.3
2017-01-19T08:11:33.746Z,-5.3
2017-01-19T08:12:37.219Z,-5.3
2017-01-19T08:13:40.193Z,-5.3
2017-01-19T08:14:43.163Z,-5.3
2017-01-19T08:15:46.132Z,-5.3
2017-01-19T08:16:49.102Z,-5.3
2017-01-19T08:17:52.599Z,-5.3
2017-01-19T08:18:55.570Z,-5.3
2017-01-19T08:19:58.542Z,-5.3
2017-01-19T08:21:01.513Z,-5.3
2017-01-19T08:22:04.512Z,-5.3
2017-01-19T08:23:07.991Z,-5.3
2017-01-19T08:24:10.962Z,-5.3
2017-01-19T08:25:13.936Z,-5.3
2017-01-19T08:26:16.908Z,-5.3
2017-01-19T08:27:19.883Z,-5.3
2017-01-19T08:28:23.362Z,-5.3
2017-01-19T08:29:26.333Z,-5.3
2017-01-19T08:30:29.309Z,-5.3
2017-01-19T08:31:32.282Z,-5.3
2017-01-19T08:32:35.258Z,-5.3
2017-01-19T08:33:38.732Z,-5.3
2017-01-19T08:34:41.702Z,-5.3
2017-01-19T08:35:44.671Z,-5.4
2017-01-19T08:36:47.673Z,-5.4
2017-01-19T08:37:50.642Z,-5.4
2017-01-19T08:38:54.119Z,-5.4
2017-01-19T08:39:57.095Z,-5.4
2017-01-19T08:41:00.069Z,-5.4
2017-01-19T08:42:03.037Z,-5.4
2017-01-19T08:43:06.020Z,-5.4
2017-01-19T08:44:09.492Z,-5.4
2017-01-19T08:45:12.466Z,-5.4
2017-01-19T08:46:15.436Z,-5.4
2017-01-19T08:47:18.403Z,-5.4
2017-01-19T08:48:21.381Z,-5.4
2017-01-19T08:49:24.855Z,-5.4
2017-01-19T08:51:30.733Z,-5.4
2017-01-19T08:52:33.706Z,-5.4
2017-01-19T08:53:36.682Z,-5.4
2017-01-19T08:54:40.154Z,-5.4
2017-01-19T08:55:43.129Z,-5.5
2017-01-19T08:56:46.096Z,-5.5
2017-01-19T08:57:49.065Z,-5.5
2017-01-19T08:58:52.034Z,-5.5
2017-01-19T08:59:55.508Z,-5.5
2017-01-19T09:00:58.478Z,-5.5
2017-01-19T09:02:01.455Z,-5.5
2017-01-19T09:03:04.422Z,-5.5
2017-01-19T09:04:07.901Z,-5.5
2017-01-19T09:05:10.870Z,-5.5
2017-01-19T09:06:13.840Z,-5.5
2017-01-19T09:07:16.805Z,-5.5
2017-01-19T09:08:19.775Z,-5.5
2017-01-19T09:09:23.249Z,-5.5
2017-01-19T09:10:26.215Z,-5.5
2017-01-19T09:11:29.187Z,-5.5
2017-01-19T09:12:32.157Z,-5.5
2017-01-19T09:14:38.538Z,-5.5
2017-01-19T09:15:41.507Z,-5.5
2017-01-19T09:16:44.475Z,-5.4
2017-01-19T09:17:47.442Z,-5.4
2017-01-19T09:18:50.415Z,-5.5
2017-01-19T09:19:54.055Z,-5.4
2017-01-19T09:20:57.031Z,-5.4
2017-01-19T09:22:00.003Z,-5.5
2017-01-19T09:23:02.982Z,-5.5
2017-01-19T09:24:05.950Z,-5.5
2017-01-19T09:25:08.923Z,-5.5
2017-01-19T09:26:11.897Z,-5.5
2017-01-19T09:27:15.368Z,-5.4
2017-01-19T09:28:18.338Z,-5.5
2017-01-19T09:29:21.307Z,-5.5
2017-01-19T09:30:24.275Z,-5.5
2017-01-19T09:31:27.247Z,-5.5
2017-01-19T09:32:30.718Z,-5.4
2017-01-19T09:33:33.689Z,-5.4
2017-01-19T09:34:36.658Z,-5.4
2017-01-19T09:35:39.626Z,-5.5
2017-01-19T09:36:42.597Z,-5.5
2017-01-19T09:37:46.099Z,-5.5
2017-01-19T09:38:49.069Z,-5.5
2017-01-19T09:39:52.042Z,-5.5
2017-01-19T09:40:55.017Z,-5.5
2017-01-19T09:41:58.000Z,-5.5
2017-01-19T09:43:01.662Z,-5.4
2017-01-19T09:44:04.128Z,-5.4
2017-01-19T09:45:07.605Z,-5.4
2017-01-19T09:46:10.581Z,-5.4
2017-01-19T09:47:13.550Z,-5.5
2017-01-19T09:48:16.523Z,-5.4
2017-01-19T09:49:19.494Z,-5.4
2017-01-19T09:50:22.967Z,-5.4
2017-01-19T09:51:25.938Z,-5.4
2017-01-19T09:52:28.910Z,-5.4
2017-01-19T09:53:31.882Z,-5.4
2017-01-19T09:54:34.859Z,-5.4
2017-01-19T09:55:38.334Z,-5.5
2017-01-19T09:56:41.311Z,-5.5
2017-01-19T09:57:44.285Z,-5.5
2017-01-19T09:58:47.255Z,-5.4
2017-01-19T09:59:50.225Z,-5.5
2017-01-19T10:00:53.698Z,-5.5
2017-01-19T10:01:56.693Z,-5.5
2017-01-19T10:02:59.662Z,-5.5
2017-01-19T10:04:02.634Z,-5.5
2017-01-19T10:05:05.606Z,-5.5
2017-01-19T10:06:09.076Z,-5.5
2017-01-19T10:07:12.047Z,-5.5
2017-01-19T10:08:15.024Z,-5.5
2017-01-19T10:09:17.990Z,-5.5
2017-01-19T10:10:20.959Z,-5.5
2017-01-19T10:11:24.432Z,-5.5
2017-01-19T10:12:27.396Z,-5.5
2017-01-19T10:13:30.367Z,-5.4
2017-01-19T10:14:33.339Z,-5.5
2017-01-19T10:16:39.725Z,-5.4
2017-01-19T10:17:42.702Z,-5.4
2017-01-19T10:18:45.672Z,-5.4
2017-01-19T10:19:48.645Z,-5.4
2017-01-19T10:20:51.619Z,-5.4
2017-01-19T10:21:55.094Z,-5.5
2017-01-19T10:22:58.064Z,-5.5
2017-01-19T10:24:01.036Z,-5.5
2017-01-19T10:25:04.028Z,-5.5
2017-01-19T10:26:06.994Z,-5.5
2017-01-19T10:27:10.471Z,-5.5
2017-01-19T10:28:13.446Z,-5.5
2017-01-19T10:29:16.413Z,-5.5
2017-01-19T10:30:19.384Z,-5.5
2017-01-19T10:31:22.353Z,-5.5
2017-01-19T10:32:25.826Z,-5.5
2017-01-19T10:33:28.796Z,-5.5
2017-01-19T10:34:31.763Z,-5.5
2017-01-19T10:35:34.732Z,-5.5
2017-01-19T10:36:37.703Z,-5.5
2017-01-19T10:37:41.178Z,-5.5
2017-01-19T10:38:44.145Z,-5.6
2017-01-19T10:41:53.436Z,-5.5
2017-01-19T10:42:56.404Z,-5.6
2017-01-19T10:43:59.372Z,-5.5
2017-01-19T10:45:02.344Z,-5.6
2017-01-19T10:46:05.315Z,-5.6
2017-01-19T10:47:08.789Z,-5.6
2017-01-19T10:48:11.756Z,-5.6
2017-01-19T10:49:14.727Z,-5.6
2017-01-19T10:50:17.695Z,-5.6
2017-01-19T10:51:20.665Z,-5.6
2017-01-19T10:52:24.142Z,-5.6
2017-01-19T10:54:30.020Z,-5.6
2017-01-19T10:55:32.989Z,-5.6
2017-01-19T10:56:36.465Z,-5.6
2017-01-19T10:57:39.434Z,-5.6
2017-01-19T10:58:42.406Z,-5.6
2017-01-19T10:59:45.376Z,-5.6
2017-01-19T11:00:48.361Z,-5.6
2017-01-19T11:01:51.840Z,-5.6
2017-01-19T11:02:54.805Z,-5.6
2017-01-19T11:03:57.780Z,-5.6
2017-01-19T11:05:00.750Z,-5.6
2017-01-19T11:06:03.718Z,-5.6
2017-01-19T11:07:07.192Z,-5.6
2017-01-19T11:08:10.166Z,-5.6
2017-01-19T11:09:13.141Z,-5.6
2017-01-19T11:10:16.113Z,-5.6
2017-01-19T11:11:19.079Z,-5.6
2017-01-19T11:12:22.058Z,-5.6
2017-01-19T11:13:25.531Z,-5.6
2017-01-19T11:14:28.497Z,-5.6
2017-01-19T11:15:31.470Z,-5.6
2017-01-19T11:16:34.440Z,-5.6
2017-01-19T11:18:40.829Z,-5.6
2017-01-19T11:19:43.797Z,-5.6
2017-01-19T11:20:46.774Z,-5.6
2017-01-19T11:21:49.746Z,-5.6
2017-01-19T11:22:52.716Z,-5.6
2017-01-19T11:23:56.184Z,-5.6
2017-01-19T11:24:59.153Z,-5.6
2017-01-19T11:26:02.128Z,-5.6
2017-01-19T11:27:05.100Z,-5.6
2017-01-19T11:28:08.066Z,-5.7
2017-01-19T11:29:11.536Z,-5.7
2017-01-19T11:30:14.510Z,-5.7
2017-01-19T11:31:17.481Z,-5.7
2017-01-19T11:32:20.428Z,-5.7
2017-01-19T11:33:23.369Z,-5.7
2017-01-19T11:34:26.818Z,-5.7
2017-01-19T11:35:29.780Z,-5.6
2017-01-19T11:36:32.733Z,-5.7
2017-01-19T11:37:35.675Z,-5.6
2017-01-19T11:38:39.131Z,-5.7
2017-01-19T11:39:42.075Z,-5.7
2017-01-19T11:40:45.085Z,-5.7
2017-01-19T11:41:48.027Z,-5.6
2017-01-19T11:42:50.972Z,-5.6
2017-01-19T11:43:54.444Z,-5.6
2017-01-19T11:44:57.389Z,-5.6
2017-01-19T11:46:00.337Z,-5.6
2017-01-19T11:47:03.280Z,-5.6
2017-01-19T11:48:06.728Z,-5.6
2017-01-19T11:49:09.695Z,-5.6
2017-01-19T11:50:12.645Z,-5.6
2017-01-19T11:51:15.589Z,-5.6
2017-01-19T11:52:18.541Z,-5.6
2017-01-19T11:53:21.990Z,-5.6
2017-01-19T11:54:24.932Z,-5.6
2017-01-19T11:55:27.882Z,-5.6
2017-01-19T11:56:30.835Z,-5.6
2017-01-19T11:57:34.281Z,-5.6
2017-01-19T11:58:37.229Z,-5.6
2017-01-19T11:59:40.171Z,-5.6
2017-01-19T12:00:43.152Z,-5.6
2017-01-19T12:01:46.607Z,-5.7
2017-01-19T12:02:49.554Z,-5.6
2017-01-19T12:03:52.500Z,-5.6
2017-01-19T12:04:55.510Z,-5.6
2017-01-19T12:05:58.453Z,-5.6
2017-01-19T12:07:02.067Z,-5.6
2017-01-19T12:08:04.509Z,-5.7
2017-01-19T12:09:08.022Z,-5.6
2017-01-19T12:10:10.965Z,-5.6
2017-01-19T12:11:13.909Z,-5.6
2017-01-19T12:12:16.858Z,-5.6
2017-01-19T12:13:20.307Z,-5.6
2017-01-19T12:14:23.254Z,-5.6
2017-01-19T12:15:26.198Z,-5.6
2017-01-19T12:16:29.209Z,-5.7
2017-01-19T12:17:32.149Z,-5.7
2017-01-19T12:18:35.591Z,-5.7
2017-01-19T12:20:41.441Z,-5.7
2017-01-19T12:21:44.383Z,-5.7
2017-01-19T12:22:47.831Z,-5.7
2017-01-19T12:23:50.778Z,-5.7
2017-01-19T12:24:53.722Z,-5.6
2017-01-19T12:25:56.662Z,-5.6
2017-01-19T12:27:00.117Z,-5.6
2017-01-19T12:28:03.065Z,-5.6
2017-01-19T12:29:06.071Z,-5.7
2017-01-19T12:30:09.013Z,-5.7
2017-01-19T12:31:11.972Z,-5.7
2017-01-19T12:32:15.424Z,-5.7
2017-01-19T12:33:18.370Z,-5.7
2017-01-19T12:34:21.315Z,-5.7
2017-01-19T12:35:24.257Z,-5.7
2017-01-19T12:36:27.705Z,-5.7
2017-01-19T12:37:30.648Z,-5.7
2017-01-19T12:38:33.592Z,-5.7
2017-01-19T12:39:36.535Z,-5.8
2017-01-19T12:40:39.982Z,-5.8
2017-01-19T12:41:42.931Z,-5.7
2017-01-19T12:42:45.876Z,-5.7
2017-01-19T12:43:48.823Z,-5.7
2017-01-19T12:44:52.274Z,-5.7
2017-01-19T12:45:55.219Z,-5.7
2017-01-19T12:46:58.164Z,-5.7
2017-01-19T12:48:01.109Z,-5.7
2017-01-19T12:49:04.556Z,-5.7
2017-01-19T12:50:07.497Z,-5.7
2017-01-19T12:51:10.441Z,-5.7
2017-01-19T12:52:13.394Z,-5.7
2017-01-19T12:53:16.337Z,-5.7
2017-01-19T12:54:19.786Z,-5.7
2017-01-19T12:55:22.729Z,-5.8
2017-01-19T12:56:25.677Z,-5.8
2017-01-19T12:57:28.620Z,-5.8
2017-01-19T12:58:32.067Z,-5.8
2017-01-19T12:59:35.011Z,-5.8
2017-01-19T13:00:37.956Z,-5.8
2017-01-19T13:01:40.928Z,-5.8
2017-01-19T13:02:44.386Z,-5.8
2017-01-19T13:03:47.328Z,-5.8
2017-01-19T13:04:50.268Z,-5.8
2017-01-19T13:05:53.215Z,-5.8
2017-01-19T13:06:56.686Z,-5.8
2017-01-19T13:07:59.632Z,-5.8
2017-01-19T13:09:02.577Z,-5.8
2017-01-19T13:10:05.518Z,-5.8
2017-01-19T13:11:08.459Z,-5.8
2017-01-19T13:12:11.905Z,-5.8
2017-01-19T13:13:14.852Z,-5.8
2017-01-19T13:14:17.802Z,-5.8
2017-01-19T13:15:20.741Z,-5.8
2017-01-19T13:16:24.185Z,-5.8
2017-01-19T13:17:27.135Z,-5.8
2017-01-19T13:18:30.080Z,-5.8
2017-01-19T13:19:33.024Z,-5.8
2017-01-19T13:20:36.477Z,-5.8
2017-01-19T13:22:42.324Z,-5.8
2017-01-19T13:23:45.274Z,-5.8
2017-01-19T13:24:48.727Z,-5.8
2017-01-19T13:25:51.670Z,-5.8
2017-01-19T13:26:54.858Z,-5.8
2017-01-19T13:27:57.802Z,-5.8
2017-01-19T13:29:00.750Z,-5.8
2017-01-19T13:30:03.866Z,-5.8
2017-01-19T13:31:06.988Z,-5.8
2017-01-19T13:32:09.935Z,-5.8
2017-01-19T13:33:12.882Z,-5.8
2017-01-19T13:34:16.334Z,-5.8
2017-01-19T13:35:19.281Z,-5.8
2017-01-19T13:36:22.232Z,-5.8
2017-01-19T13:37:25.175Z,-5.8
2017-01-19T13:38:28.623Z,-5.8
2017-01-19T13:39:31.566Z,-5.8
2017-01-19T13:40:34.505Z,-5.8
2017-01-19T13:41:37.450Z,-5.9
2017-01-19T13:42:40.394Z,-5.8
2017-01-19T13:43:43.838Z,-5.9
2017-01-19T13:44:46.780Z,-5.9
2017-01-19T13:45:49.721Z,-5.9
2017-01-19T13:46:52.668Z,-5.9
2017-01-19T13:47:56.119Z,-5.9
2017-01-19T13:48:59.063Z,-5.9
2017-01-19T13:50:02.016Z,-5.9
2017-01-19T13:51:04.966Z,-5.9
2017-01-19T13:52:08.411Z,-5.9
2017-01-19T13:53:11.358Z,-5.9
2017-01-19T13:55:17.220Z,-5.9
2017-01-19T13:56:20.664Z,-5.9
2017-01-19T13:57:23.607Z,-5.9
2017-01-19T13:58:26.550Z,-5.9
2017-01-19T13:59:29.563Z,-5.9
2017-01-19T14:00:32.506Z,-5.9
2017-01-19T14:01:35.954Z,-5.9
2017-01-19T14:02:38.897Z,-5.8
2017-01-19T14:03:41.841Z,-5.9
2017-01-19T14:04:44.795Z,-5.9
2017-01-19T14:05:48.247Z,-5.9
2017-01-19T14:06:51.189Z,-5.9
2017-01-19T14:07:54.134Z,-5.9
2017-01-19T14:08:57.072Z,-5.9
2017-01-19T14:10:00.016Z,-5.9
2017-01-19T14:11:03.462Z,-5.8
2017-01-19T14:12:06.407Z,-5.9
2017-01-19T14:13:09.354Z,-5.8
2017-01-19T14:14:12.298Z,-5.9
2017-01-19T14:15:15.749Z,-5.9
2017-01-19T14:16:18.699Z,-5.9
2017-01-19T14:17:21.641Z,-5.9
2017-01-19T14:18:24.592Z,-5.9
2017-01-19T14:19:28.041Z,-5.9
2017-01-19T14:20:30.991Z,-5.9
2017-01-19T14:21:33.963Z,-5.9
2017-01-19T14:24:43.223Z,-5.9